createdAt,value
2024-03-09T00:00:24.442Z,100972.81
2024-03-09T00:02:57.130Z,100979.75
2024-03-09T00:05:25.690Z,100974.59
2024-03-09T00:07:56.056Z,100967.66
2024-03-09T00:10:29.638Z,100965.06
2024-03-09T00:12:56.584Z,100960.63
2024-03-09T00:15:26.877Z,100964.09
2024-03-09T00:17:54.959Z,100961.47
2024-03-09T00:20:26.331Z,100953.69
2024-03-09T00:22:54.132Z,100944.09
2024-03-09T00:25:24.541Z,100957.19
2024-03-09T00:27:53.259Z,100954.63
2024-03-09T00:30:22.320Z,100961.69
2024-03-09T00:32:50.025Z,100950.31
2024-03-09T00:35:16.867Z,100953.88
2024-03-09T00:37:43.352Z,100950.31
2024-03-09T00:40:10.867Z,100945.94
2024-03-09T00:42:38.335Z,100945.06
2024-03-09T00:45:05.650Z,100937.19
2024-03-09T00:47:33.412Z,100932.88
2024-03-09T00:50:00.340Z,100933.75
2024-03-09T00:52:29.512Z,100921.56
2024-03-09T00:54:56.632Z,100926.75
2024-03-09T00:57:23.525Z,100925.94
2024-03-09T00:59:53.505Z,100927.75
2024-03-09T01:02:20.340Z,100925.13
2024-03-09T01:04:47.355Z,100922.50
2024-03-09T01:07:16.745Z,100922.56
2024-03-09T01:09:44.941Z,100918.19
2024-03-09T01:12:11.376Z,100919.06
2024-03-09T01:14:37.852Z,100917.28
2024-03-09T01:17:07.113Z,100913.00
2024-03-09T01:19:36.853Z,100901.69
2024-03-09T01:22:06.836Z,100910.47
2024-03-09T01:24:33.755Z,100907.84
2024-03-09T01:27:02.645Z,100899.06
2024-03-09T01:29:29.069Z,100896.44
2024-03-09T01:31:55.630Z,100904.38
2024-03-09T01:34:24.613Z,100890.44
2024-03-09T01:36:51.022Z,100902.66
2024-03-09T01:39:18.306Z,100900.97
2024-03-09T01:41:45.654Z,100897.47
2024-03-09T01:44:12.102Z,100888.78
2024-03-09T01:46:39.099Z,100902.72
2024-03-09T01:49:06.932Z,100894.84
2024-03-09T01:51:35.715Z,100889.66
2024-03-09T01:54:11.274Z,100898.41
2024-03-09T01:56:41.797Z,100891.41
2024-03-09T01:59:09.207Z,100889.66
2024-03-09T02:01:36.661Z,100887.03
2024-03-09T02:04:05.846Z,100876.53
2024-03-09T02:06:34.013Z,100883.53
2024-03-09T02:09:07.719Z,100885.31
2024-03-09T02:11:39.587Z,100882.75
2024-03-09T02:14:06.399Z,100872.22
2024-03-09T02:16:33.201Z,100873.97
2024-03-09T02:19:01.558Z,100873.09
2024-03-09T02:21:29.246Z,100877.47
2024-03-09T02:24:06.482Z,100871.34
2024-03-09T02:26:37.442Z,100871.34
2024-03-09T02:29:05.318Z,100871.38
2024-03-09T02:31:32.148Z,100860.03
2024-03-09T02:33:58.682Z,100860.03
2024-03-09T02:36:32.236Z,100864.44
2024-03-09T02:38:59.301Z,100860.91
2024-03-09T02:41:26.941Z,100855.72
2024-03-09T02:43:54.855Z,100857.47
2024-03-09T02:46:27.863Z,100860.03
2024-03-09T02:48:55.165Z,100856.59
2024-03-09T02:51:26.656Z,100840.03
2024-03-09T02:53:53.433Z,100851.34
2024-03-09T02:56:21.074Z,100840.88
2024-03-09T02:58:49.273Z,100830.38
2024-03-09T03:01:19.542Z,100828.63
2024-03-09T03:03:52.206Z,100833.88
2024-03-09T03:06:20.802Z,100835.66
2024-03-09T03:08:49.983Z,100823.47
2024-03-09T03:11:17.776Z,100820.84
2024-03-09T03:13:46.411Z,100820.91
2024-03-09T03:16:27.419Z,100819.13
2024-03-09T03:18:57.236Z,100814.75
2024-03-09T03:21:25.101Z,100825.19
2024-03-09T03:23:52.583Z,100817.38
2024-03-09T03:26:20.824Z,100813.00
2024-03-09T03:28:49.323Z,100808.69
2024-03-09T03:31:22.187Z,100813.03
2024-03-09T03:33:51.925Z,100812.13
2024-03-09T03:36:23.093Z,100811.25
2024-03-09T03:38:50.787Z,100807.81
2024-03-09T03:41:19.804Z,100811.28
2024-03-09T03:43:46.557Z,100800.78
2024-03-09T03:46:15.141Z,100807.75
2024-03-09T03:48:46.331Z,100809.50
2024-03-09T03:51:16.995Z,100808.69
2024-03-09T03:53:45.323Z,100804.31
2024-03-09T03:56:13.360Z,100795.56
2024-03-09T03:58:40.879Z,100802.56
2024-03-09T04:01:07.654Z,100792.97
2024-03-09T04:03:34.887Z,100799.03
2024-03-09T04:06:03.394Z,100789.47
2024-03-09T04:08:30.113Z,100781.63
2024-03-09T04:10:57.443Z,100774.66
2024-03-09T04:13:25.146Z,100783.41
2024-03-09T04:15:53.583Z,100781.59
2024-03-09T04:18:22.756Z,100774.66
2024-03-09T04:20:49.647Z,100774.66
2024-03-09T04:23:19.139Z,100762.50
2024-03-09T04:25:51.725Z,100772.94
2024-03-09T04:28:22.631Z,100766.84
2024-03-09T04:30:55.533Z,100767.72
2024-03-09T04:33:25.367Z,100763.34
2024-03-09T04:35:53.842Z,100758.13
2024-03-09T04:38:22.680Z,100758.13
2024-03-09T04:40:52.510Z,100746.81
2024-03-09T04:43:19.996Z,100756.38
2024-03-09T04:45:46.804Z,100763.41
2024-03-09T04:48:14.786Z,100750.31
2024-03-09T04:50:47.106Z,100752.88
2024-03-09T04:53:13.627Z,100751.19
2024-03-09T04:55:45.126Z,100748.56
2024-03-09T04:58:19.116Z,100736.34
2024-03-09T05:00:46.324Z,100741.59
2024-03-09T05:03:18.823Z,100732.03
2024-03-09T05:05:45.862Z,100728.50
2024-03-09T05:08:12.936Z,100731.13
2024-03-09T05:10:40.043Z,100723.28
2024-03-09T05:13:08.046Z,100732.84
2024-03-09T05:15:35.158Z,100725.03
2024-03-09T05:18:11.275Z,100731.16
2024-03-09T05:20:38.440Z,100726.81
2024-03-09T05:23:08.736Z,100726.81
2024-03-09T05:25:38.035Z,100721.59
2024-03-09T05:28:04.878Z,100722.47
2024-03-09T05:30:31.644Z,100729.44
2024-03-09T05:33:07.861Z,100724.22
2024-03-09T05:35:35.380Z,100721.59
2024-03-09T05:38:06.095Z,100724.16
2024-03-09T05:40:36.188Z,100711.94
2024-03-09T05:43:07.975Z,100720.63
2024-03-09T05:45:36.845Z,100711.09
2024-03-09T05:48:03.715Z,100718.94
2024-03-09T05:50:31.259Z,100707.56
2024-03-09T05:53:02.035Z,100708.44
2024-03-09T05:55:29.531Z,100722.38
2024-03-09T05:57:57.366Z,100712.78
2024-03-09T06:00:30.122Z,100718.88
2024-03-09T06:02:59.267Z,100718.03
2024-03-09T06:05:32.605Z,100711.88
2024-03-09T06:08:00.150Z,100713.66
2024-03-09T06:10:27.111Z,100705.81
2024-03-09T06:12:54.322Z,100699.66
2024-03-09T06:15:23.535Z,100710.13
2024-03-09T06:17:53.733Z,100704.00
2024-03-09T06:20:20.593Z,100702.25
2024-03-09T06:22:47.984Z,100703.97
2024-03-09T06:25:25.781Z,100707.44
2024-03-09T06:27:56.984Z,100703.06
2024-03-09T06:30:29.165Z,100703.91
2024-03-09T06:33:02.454Z,100700.38
2024-03-09T06:35:30.724Z,100702.97
2024-03-09T06:38:14.628Z,100696.88
2024-03-09T06:40:47.247Z,100702.91
2024-03-09T06:43:14.605Z,100702.94
2024-03-09T06:45:43.046Z,100711.56
2024-03-09T06:48:09.728Z,100706.31
2024-03-09T06:50:45.126Z,100695.75
2024-03-09T06:53:11.778Z,100707.13
2024-03-09T06:55:54.528Z,100697.50
2024-03-09T06:58:21.514Z,100690.50
2024-03-09T07:00:51.013Z,100697.41
2024-03-09T07:03:23.212Z,100697.34
2024-03-09T07:05:52.075Z,100694.72
2024-03-09T07:08:22.495Z,100699.00
2024-03-09T07:10:49.578Z,100709.44
2024-03-09T07:13:19.871Z,100703.25
2024-03-09T07:15:49.174Z,100708.50
2024-03-09T07:18:22.005Z,100708.41
2024-03-09T07:20:53.282Z,100708.34
2024-03-09T07:23:25.665Z,100702.22
2024-03-09T07:25:54.481Z,100683.91
2024-03-09T07:28:26.985Z,100712.63
2024-03-09T07:30:53.592Z,100692.47
2024-03-09T07:33:29.330Z,100702.88
2024-03-09T07:35:58.007Z,100705.28
2024-03-09T07:38:24.739Z,100706.91
2024-03-09T07:41:13.831Z,100696.22
2024-03-09T07:43:43.522Z,100692.53
2024-03-09T07:46:10.167Z,100701.94
2024-03-09T07:48:38.762Z,100697.31
2024-03-09T07:51:05.371Z,100705.06
2024-03-09T07:53:33.664Z,100687.41
2024-03-09T07:56:00.215Z,100683.00
2024-03-09T07:58:27.825Z,100663.88
2024-03-09T08:00:56.888Z,100657.84
2024-03-09T08:03:25.682Z,100655.22
2024-03-09T08:05:52.417Z,100653.53
2024-03-09T08:08:19.211Z,100653.53
2024-03-09T08:10:53.243Z,100648.47
2024-03-09T08:13:26.210Z,100652.53
2024-03-09T08:15:56.311Z,100655.09
2024-03-09T08:18:23.607Z,100658.34
2024-03-09T08:20:53.238Z,100654.72
2024-03-09T08:23:19.990Z,100643.00
2024-03-09T08:25:56.517Z,100648.22
2024-03-09T08:28:23.313Z,100645.09
2024-03-09T08:30:49.823Z,100640.25
2024-03-09T08:33:16.459Z,100642.00
2024-03-09T08:35:46.182Z,100630.78
2024-03-09T08:38:14.640Z,100632.31
2024-03-09T08:40:41.626Z,100625.34
2024-03-09T08:43:08.418Z,100621.97
2024-03-09T08:45:37.101Z,100616.50
2024-03-09T08:48:05.144Z,100610.59
2024-03-09T08:50:31.685Z,100614.13
2024-03-09T08:53:00.642Z,100600.22
2024-03-09T08:55:27.396Z,100594.69
2024-03-09T08:57:54.062Z,100581.22
2024-03-09T09:00:21.943Z,100582.06
2024-03-09T09:02:49.563Z,100581.69
2024-03-09T09:05:20.920Z,100576.88
2024-03-09T09:07:48.652Z,100565.56
2024-03-09T09:10:16.630Z,100554.22
2024-03-09T09:12:56.293Z,100564.59
2024-03-09T09:15:24.340Z,100565.44
2024-03-09T09:17:50.945Z,100554.78
2024-03-09T09:20:21.121Z,100551.50
2024-03-09T09:22:48.770Z,100564.38
2024-03-09T09:25:17.811Z,100558.00
2024-03-09T09:27:49.842Z,100553.47
2024-03-09T09:30:21.077Z,100547.16
2024-03-09T09:32:54.297Z,100545.22
2024-03-09T09:35:21.742Z,100536.19
2024-03-09T09:37:48.299Z,100532.31
2024-03-09T09:40:15.089Z,100532.59
2024-03-09T09:42:43.334Z,100531.31
2024-03-09T09:45:18.701Z,100521.56
2024-03-09T09:47:48.975Z,100522.50
2024-03-09T09:50:22.359Z,100512.91
2024-03-09T09:52:50.690Z,100504.19
2024-03-09T09:55:22.571Z,100507.31
2024-03-09T09:57:49.555Z,100498.22
2024-03-09T10:00:17.542Z,100506.97
2024-03-09T10:02:45.294Z,100499.22
2024-03-09T10:05:25.439Z,100501.50
2024-03-09T10:08:12.288Z,100496.09
2024-03-09T10:10:42.672Z,100490.28
2024-03-09T10:13:10.300Z,100486.84
2024-03-09T10:15:39.197Z,100475.69
2024-03-09T10:18:06.887Z,100486.97
2024-03-09T10:20:36.344Z,100480.66
2024-03-09T10:23:06.480Z,100485.22
2024-03-09T10:25:36.730Z,100485.22
2024-03-09T10:28:05.222Z,100479.53
2024-03-09T10:30:32.188Z,100468.06
2024-03-09T10:33:01.884Z,100467.34
2024-03-09T10:35:28.567Z,100447.56
2024-03-09T10:37:58.855Z,100455.84
2024-03-09T10:40:28.215Z,100447.13
2024-03-09T10:42:55.515Z,100447.25
2024-03-09T10:45:26.279Z,100450.34
2024-03-09T10:47:57.953Z,100441.78
2024-03-09T10:50:26.545Z,100446.13
2024-03-09T10:53:26.478Z,100454.41
2024-03-09T10:56:06.011Z,100455.22
2024-03-09T10:58:34.251Z,100429.22
2024-03-09T11:01:09.199Z,100428.38
2024-03-09T11:03:36.899Z,100444.78
2024-03-09T11:06:03.619Z,100455.38
2024-03-09T11:08:33.758Z,100443.81
2024-03-09T11:11:00.383Z,100429.50
2024-03-09T11:13:27.071Z,100422.31
2024-03-09T11:15:58.416Z,100418.69
2024-03-09T11:18:25.109Z,100423.38
2024-03-09T11:21:03.850Z,100426.31
2024-03-09T11:23:36.482Z,100419.88
2024-03-09T11:26:04.645Z,100421.44
2024-03-09T11:28:43.693Z,100401.72
2024-03-09T11:31:13.342Z,100408.47
2024-03-09T11:33:53.304Z,100402.44
2024-03-09T11:36:42.791Z,100401.50
2024-03-09T11:39:23.966Z,100394.59
2024-03-09T11:41:51.947Z,100400.38
2024-03-09T11:44:24.413Z,100395.16
2024-03-09T11:46:53.641Z,100386.41
2024-03-09T11:49:20.153Z,100386.84
2024-03-09T11:51:49.551Z,100389.06
2024-03-09T11:54:22.990Z,100390.19
2024-03-09T11:56:53.145Z,100399.06
2024-03-09T11:59:20.935Z,100394.97
2024-03-09T12:01:53.406Z,100397.59
2024-03-09T12:04:22.271Z,100378.34
2024-03-09T12:06:49.220Z,100387.19
2024-03-09T12:09:29.011Z,100373.47
2024-03-09T12:12:13.292Z,100338.41
2024-03-09T12:14:57.512Z,100380.56
2024-03-09T12:17:35.732Z,100378.63
2024-03-09T12:20:16.353Z,100365.19
2024-03-09T12:22:53.779Z,100350.66
2024-03-09T12:25:20.393Z,100354.22
2024-03-09T12:27:51.320Z,100353.81
2024-03-09T12:30:17.827Z,100363.41
2024-03-09T12:32:44.350Z,100353.94
2024-03-09T12:35:17.080Z,100350.25
2024-03-09T12:37:50.353Z,100359.47
2024-03-09T12:40:19.732Z,100350.91
2024-03-09T12:42:55.128Z,100344.19
2024-03-09T12:45:26.163Z,100339.53
2024-03-09T12:47:56.220Z,100332.94
2024-03-09T12:50:24.781Z,100342.09
2024-03-09T12:52:52.925Z,100346.38
2024-03-09T12:55:29.466Z,100333.41
2024-03-09T12:58:00.988Z,100335.63
2024-03-09T13:00:32.732Z,100328.09
2024-03-09T13:03:09.667Z,100333.00
2024-03-09T13:05:36.369Z,100323.28
2024-03-09T13:08:11.300Z,100317.28
2024-03-09T13:10:38.652Z,100307.75
2024-03-09T13:13:15.237Z,100277.81
2024-03-09T13:15:50.583Z,100292.00
2024-03-09T13:18:24.169Z,100306.00
2024-03-09T13:20:54.858Z,100289.16
2024-03-09T13:23:21.674Z,100297.59
2024-03-09T13:25:49.552Z,100292.34
2024-03-09T13:28:18.451Z,100298.09
2024-03-09T13:30:47.685Z,100275.06
2024-03-09T13:33:16.995Z,100274.47
2024-03-09T13:35:45.410Z,100270.09
2024-03-09T13:38:12.109Z,100275.41
2024-03-09T13:40:38.601Z,100281.50
2024-03-09T13:43:07.360Z,100272.13
2024-03-09T13:45:36.735Z,100274.25
2024-03-09T13:48:13.984Z,100276.59
2024-03-09T13:50:40.458Z,100261.44
2024-03-09T13:53:09.537Z,100258.94
2024-03-09T13:55:36.433Z,100257.44
2024-03-09T13:58:03.906Z,100257.41
2024-03-09T14:00:30.891Z,100253.94
2024-03-09T14:02:58.306Z,100243.78
2024-03-09T14:05:28.121Z,100246.16
2024-03-09T14:08:00.032Z,100247.09
2024-03-09T14:10:32.517Z,100237.91
2024-03-09T14:13:12.307Z,100234.72
2024-03-09T14:15:42.651Z,100222.97
2024-03-09T14:18:16.659Z,100235.06
2024-03-09T14:20:43.313Z,100228.06
2024-03-09T14:23:18.059Z,100244.97
2024-03-09T14:25:44.680Z,100231.84
2024-03-09T14:28:13.845Z,100229.00
2024-03-09T14:30:43.125Z,100224.47
2024-03-09T14:33:16.727Z,100227.38
2024-03-09T14:35:43.236Z,100226.34
2024-03-09T14:38:11.225Z,100227.03
2024-03-09T14:40:41.580Z,100218.09
2024-03-09T14:43:11.192Z,100211.66
2024-03-09T14:45:38.066Z,100204.22
2024-03-09T14:48:10.505Z,100222.22
2024-03-09T14:50:39.559Z,100197.44
2024-03-09T14:53:14.213Z,100204.44
2024-03-09T14:55:47.267Z,100202.19
2024-03-09T14:58:14.107Z,100214.16
2024-03-09T15:00:44.072Z,100209.59
2024-03-09T15:03:33.832Z,100212.69
2024-03-09T15:06:01.167Z,100215.25
2024-03-09T15:08:28.125Z,100198.34
2024-03-09T15:10:59.492Z,100208.56
2024-03-09T15:13:49.234Z,100207.50
2024-03-09T15:16:25.664Z,100202.28
2024-03-09T15:18:54.805Z,100204.59
2024-03-09T15:21:23.427Z,100198.00
2024-03-09T15:23:52.583Z,100206.75
2024-03-09T15:26:21.153Z,100197.22
2024-03-09T15:28:50.969Z,100202.78
2024-03-09T15:31:17.921Z,100194.56
2024-03-09T15:33:44.604Z,100192.28
2024-03-09T15:36:29.652Z,100193.09
2024-03-09T15:39:13.478Z,100182.81
2024-03-09T15:41:49.700Z,100192.00
2024-03-09T15:44:28.103Z,100202.97
2024-03-09T15:46:58.649Z,100205.31
2024-03-09T15:49:28.786Z,100190.44
2024-03-09T15:52:00.612Z,100185.19
2024-03-09T15:54:27.098Z,100208.22
2024-03-09T15:56:53.508Z,100196.53
2024-03-09T15:59:21.459Z,100187.88
2024-03-09T16:01:49.248Z,100197.69
2024-03-09T16:04:16.996Z,100190.03
2024-03-09T16:06:45.189Z,100204.75
2024-03-09T16:09:15.202Z,100195.91
2024-03-09T16:11:42.644Z,100192.31
2024-03-09T16:14:13.421Z,100195.78
2024-03-09T16:16:40.589Z,100193.91
2024-03-09T16:19:07.192Z,100194.84
2024-03-09T16:21:40.147Z,100186.03
2024-03-09T16:24:08.699Z,100195.06
2024-03-09T16:26:35.758Z,100194.53
2024-03-09T16:29:03.420Z,100178.06
2024-03-09T16:31:37.177Z,100197.66
2024-03-09T16:34:07.265Z,100194.16
2024-03-09T16:36:34.512Z,100201.41
2024-03-09T16:39:04.953Z,100204.16
2024-03-09T16:41:34.149Z,100196.25
2024-03-09T16:44:00.827Z,100198.28
2024-03-09T16:46:27.790Z,100205.56
2024-03-09T16:48:54.489Z,100202.50
2024-03-09T16:51:23.162Z,100208.81
2024-03-09T16:53:54.349Z,100217.44
2024-03-09T16:56:20.857Z,100210.34
2024-03-09T16:58:47.409Z,100209.63
2024-03-09T17:01:13.993Z,100214.06
2024-03-09T17:03:41.023Z,100204.63
2024-03-09T17:06:10.572Z,100200.31
2024-03-09T17:08:37.648Z,100190.00
2024-03-09T17:11:10.025Z,100193.50
2024-03-09T17:13:37.219Z,100211.16
2024-03-09T17:16:03.931Z,100211.38
2024-03-09T17:18:30.415Z,100205.38
2024-03-09T17:20:56.899Z,100201.69
2024-03-09T17:23:26.816Z,100204.78
2024-03-09T17:25:53.338Z,100208.09
2024-03-09T17:28:21.446Z,100216.06
2024-03-09T17:30:49.733Z,100213.84
2024-03-09T17:33:24.063Z,100216.34
2024-03-09T17:35:54.072Z,100213.78
2024-03-09T17:38:22.198Z,100215.50
2024-03-09T17:40:49.361Z,100220.97
2024-03-09T17:43:16.567Z,100216.66
2024-03-09T17:45:42.960Z,100214.00
2024-03-09T17:48:09.501Z,100209.91
2024-03-09T17:50:37.188Z,100220.16
2024-03-09T17:53:06.721Z,100203.75
2024-03-09T17:55:33.981Z,100214.16
2024-03-09T17:58:08.577Z,100212.56
2024-03-09T18:00:36.380Z,100216.09
2024-03-09T18:03:03.602Z,100212.63
2024-03-09T18:05:37.876Z,100214.44
2024-03-09T18:08:12.858Z,100218.13
2024-03-09T18:10:43.742Z,100217.09
2024-03-09T18:13:15.202Z,100209.38
2024-03-09T18:15:46.416Z,100209.94
2024-03-09T18:18:14.039Z,100210.72
2024-03-09T18:20:47.830Z,100210.00
2024-03-09T18:23:15.757Z,100205.72
2024-03-09T18:25:49.541Z,100200.41
2024-03-09T18:28:17.579Z,100201.28
2024-03-09T18:30:46.057Z,100199.06
2024-03-09T18:33:14.686Z,100202.69
2024-03-09T18:35:46.578Z,100196.47
2024-03-09T18:38:15.009Z,100193.00
2024-03-09T18:40:42.130Z,100192.09
2024-03-09T18:43:09.976Z,100195.09
2024-03-09T18:45:38.895Z,100197.25
2024-03-09T18:48:05.932Z,100197.31
2024-03-09T18:50:32.449Z,100204.63
2024-03-09T18:52:59.653Z,100197.88
2024-03-09T18:55:27.259Z,100195.53
2024-03-09T18:57:54.757Z,100194.38
2024-03-09T19:00:30.093Z,100192.19
2024-03-09T19:02:56.751Z,100196.97
2024-03-09T19:05:25.408Z,100189.38
2024-03-09T19:07:55.986Z,100192.25
2024-03-09T19:10:23.804Z,100185.34
2024-03-09T19:12:50.597Z,100193.81
2024-03-09T19:15:17.208Z,100194.13
2024-03-09T19:17:46.749Z,100181.22
2024-03-09T19:20:20.053Z,100178.19
2024-03-09T19:22:48.065Z,100174.78
2024-03-09T19:25:14.542Z,100167.03
2024-03-09T19:27:41.868Z,100174.44
2024-03-09T19:30:19.252Z,100165.50
2024-03-09T19:32:47.374Z,100176.03
2024-03-09T19:35:22.219Z,100174.63
2024-03-09T19:37:49.233Z,100169.13
2024-03-09T19:40:17.684Z,100184.31
2024-03-09T19:42:46.045Z,100179.47
2024-03-09T19:45:14.187Z,100180.53
2024-03-09T19:47:41.041Z,100180.81
2024-03-09T19:50:10.867Z,100184.41
2024-03-09T19:52:39.374Z,100180.19
2024-03-09T19:55:13.136Z,100185.34
2024-03-09T19:57:41.942Z,100189.03
2024-03-09T20:00:14.968Z,100186.34
2024-03-09T20:02:44.182Z,100183.00
2024-03-09T20:05:13.503Z,100182.28
2024-03-09T20:07:42.563Z,100187.66
2024-03-09T20:10:20.926Z,100182.13
2024-03-09T20:12:51.342Z,100176.28
2024-03-09T20:15:20.431Z,100182.56
2024-03-09T20:17:55.350Z,100188.16
2024-03-09T20:20:24.061Z,100183.84
2024-03-09T20:22:55.542Z,100189.25
2024-03-09T20:25:25.009Z,100191.06
2024-03-09T20:27:52.047Z,100180.59
2024-03-09T20:30:20.509Z,100180.69
2024-03-09T20:32:47.983Z,100177.53
2024-03-09T20:35:16.629Z,100185.50
2024-03-09T20:37:45.818Z,100180.63
2024-03-09T20:40:21.643Z,100187.69
2024-03-09T20:42:49.644Z,100178.97
2024-03-09T20:45:19.920Z,100184.06
2024-03-09T20:47:46.909Z,100182.66
2024-03-09T20:50:19.433Z,100184.41
2024-03-09T20:52:54.515Z,100178.44
2024-03-09T20:55:21.522Z,100180.41
2024-03-09T20:57:48.540Z,100170.94
2024-03-09T21:00:18.974Z,100172.00
2024-03-09T21:02:46.358Z,100173.09
2024-03-09T21:05:15.522Z,100177.34
2024-03-09T21:07:44.460Z,100182.84
2024-03-09T21:10:11.181Z,100168.78
2024-03-09T21:12:38.311Z,100169.25
2024-03-09T21:15:07.809Z,100160.63
2024-03-09T21:17:37.597Z,100161.06
2024-03-09T21:20:15.306Z,100162.09
2024-03-09T21:22:42.584Z,100165.63
2024-03-09T21:25:12.953Z,100164.03
2024-03-09T21:27:42.816Z,100157.63
2024-03-09T21:30:15.258Z,100156.81
2024-03-09T21:32:44.158Z,100155.34
2024-03-09T21:35:16.291Z,100156.59
2024-03-09T21:37:45.199Z,100147.59
2024-03-09T21:40:17.620Z,100152.66
2024-03-09T21:42:45.425Z,100138.81
2024-03-09T21:45:15.441Z,100149.44
2024-03-09T21:47:44.425Z,100151.16
2024-03-09T21:50:20.472Z,100139.97
2024-03-09T21:52:49.812Z,100146.09
2024-03-09T21:55:19.815Z,100144.75
2024-03-09T21:57:48.761Z,100141.28
2024-03-09T22:00:21.651Z,100137.78
2024-03-09T22:02:53.344Z,100146.56
2024-03-09T22:05:23.212Z,100142.09
2024-03-09T22:07:49.870Z,100149.41
2024-03-09T22:10:20.069Z,100136.31
2024-03-09T22:12:47.122Z,100135.53
2024-03-09T22:15:16.170Z,100133.94
2024-03-09T22:17:43.327Z,100139.16
2024-03-09T22:20:14.701Z,100138.41
2024-03-09T22:22:45.814Z,100142.88
2024-03-09T22:25:14.666Z,100145.72
2024-03-09T22:27:41.990Z,100139.47
2024-03-09T22:30:09.683Z,100141.16
2024-03-09T22:32:40.652Z,100135.06
2024-03-09T22:35:14.411Z,100144.78
2024-03-09T22:37:45.349Z,100133.63
2024-03-09T22:40:14.220Z,100146.94
2024-03-09T22:42:42.128Z,100145.06
2024-03-09T22:45:12.485Z,100139.94
2024-03-09T22:47:44.667Z,100137.34
2024-03-09T22:50:17.841Z,100135.97
2024-03-09T22:52:44.610Z,100139.63
2024-03-09T22:55:12.109Z,100147.41
2024-03-09T22:57:38.582Z,100132.84
2024-03-09T23:00:07.428Z,100147.91
2024-03-09T23:02:34.893Z,100134.00
2024-03-09T23:05:01.793Z,100146.84
2024-03-09T23:07:29.443Z,100142.59
2024-03-09T23:09:57.795Z,100138.91
2024-03-09T23:12:26.640Z,100136.31
2024-03-09T23:14:55.348Z,100140.09
2024-03-09T23:17:21.821Z,100134.00
2024-03-09T23:19:49.392Z,100134.97
2024-03-09T23:22:15.832Z,100131.69
2024-03-09T23:24:42.653Z,100135.81
2024-03-09T23:27:09.075Z,100142.88
2024-03-09T23:29:35.673Z,100147.25
2024-03-09T23:32:02.202Z,100146.44
2024-03-09T23:34:31.720Z,100144.84
2024-03-09T23:36:58.669Z,100147.56
2024-03-09T23:39:25.281Z,100151.22
2024-03-09T23:41:51.700Z,100146.09
2024-03-09T23:44:20.325Z,100149.66
2024-03-09T23:46:49.452Z,100153.91
2024-03-09T23:49:16.715Z,100146.91
2024-03-09T23:51:43.173Z,100155.88
2024-03-09T23:54:10.599Z,100156.84
2024-03-09T23:56:39.666Z,100152.47
2024-03-09T23:59:07.723Z,100156.19
